Time;durP1;ratioP1;P1;durP2;ratioP2;P2;SDS_P1;SDS_P2;PMS_P1;PMS_P2;Temp;Humidity;BMP_temperature;BMP_pressure;BME280_temperature;BME280_humidity;BME280_pressure;Samples;Min_cycle;Max_cycle;Signal;HPM_P1;HPM_P2
2023/11/09 00:01:17;0.00;0.00;0.62;0.00;0.00;0.62;1.40;0.80;;;22.90;28.60;;;;;;2252197;61;20367;-61
2023/11/09 00:04:02;0.00;0.00;0.62;0.00;0.00;0.62;1.73;1.00;;;22.90;28.60;;;;;;2252474;61;20643;-62
2023/11/09 00:06:47;0.00;0.00;0.62;0.00;0.00;0.62;1.87;1.10;;;22.90;28.60;;;;;;2252606;61;20417;-62
2023/11/09 00:09:31;0.00;0.00;0.62;0.00;0.00;0.62;2.17;1.20;;;22.90;28.60;;;;;;2252649;61;20459;-63
2023/11/09 00:12:16;0.00;0.00;0.62;0.00;0.00;0.62;1.77;1.13;;;22.90;28.60;;;;;;2252430;61;20941;-62
2023/11/09 00:15:03;0.00;0.00;0.62;0.00;0.00;0.62;1.70;1.10;;;22.90;28.60;;;;;;2252497;61;20530;-61
2023/11/09 00:17:48;0.00;0.00;0.62;0.00;0.00;0.62;2.77;1.40;;;22.90;28.60;;;;;;2252601;61;20370;-62
2023/11/09 00:20:34;0.00;0.00;0.62;0.00;0.00;0.62;2.00;1.40;;;22.90;28.60;;;;;;2252660;61;20441;-61
2023/11/09 00:23:19;0.00;0.00;0.62;0.00;0.00;0.62;2.07;1.20;;;22.90;28.60;;;;;;2252607;61;20413;-59
2023/11/09 00:26:04;0.00;0.00;0.62;0.00;0.00;0.62;1.80;1.20;;;22.90;28.60;;;;;;2252151;61;20402;-61
2023/11/09 00:28:50;0.00;0.00;0.62;0.00;0.00;0.62;1.83;1.10;;;22.90;28.60;;;;;;2251874;61;20462;-61
2023/11/09 00:31:37;0.00;0.00;0.62;0.00;0.00;0.62;2.03;1.10;;;22.90;28.60;;;;;;2252698;61;20426;-62
2023/11/09 00:34:21;0.00;0.00;0.62;0.00;0.00;0.62;2.03;1.40;;;22.90;28.70;;;;;;2252710;61;20398;-61
2023/11/09 00:37:06;0.00;0.00;0.62;0.00;0.00;0.62;2.40;1.37;;;22.90;28.60;;;;;;2252633;61;20443;-61
2023/11/09 00:39:50;0.00;0.00;0.62;0.00;0.00;0.62;2.33;1.30;;;22.90;28.60;;;;;;2252126;61;20362;-62
2023/11/09 00:42:35;0.00;0.00;0.62;0.00;0.00;0.62;2.00;1.40;;;22.90;28.60;;;;;;2252766;61;20404;-56
2023/11/09 00:45:20;0.00;0.00;0.62;0.00;0.00;0.62;2.17;1.30;;;22.90;28.60;;;;;;2252294;61;20407;-62
2023/11/09 00:48:06;0.00;0.00;0.62;0.00;0.00;0.62;2.77;1.60;;;22.90;28.60;;;;;;2252168;61;20429;-60
2023/11/09 00:50:53;0.00;0.00;0.62;0.00;0.00;0.62;2.07;1.10;;;22.90;28.60;;;;;;2251870;61;20421;-61
2023/11/09 00:53:38;0.00;0.00;0.62;0.00;0.00;0.62;2.00;1.13;;;22.90;28.60;;;;;;2252470;61;20402;-58
2023/11/09 00:56:22;0.00;0.00;0.62;0.00;0.00;0.62;1.80;1.03;;;22.90;28.60;;;;;;2252016;61;20461;-61
2023/11/09 00:59:07;0.00;0.00;0.62;0.00;0.00;0.62;2.60;1.60;;;22.90;28.60;;;;;;2251505;61;20414;-60
2023/11/09 01:01:52;0.00;0.00;0.62;0.00;0.00;0.62;2.10;1.40;;;22.90;28.70;;;;;;2252835;61;20363;-61
2023/11/09 01:04:37;0.00;0.00;0.62;0.00;0.00;0.62;2.27;1.20;;;22.90;28.60;;;;;;2252665;61;20429;-61
2023/11/09 01:07:22;0.00;0.00;0.62;0.00;0.00;0.62;2.73;1.30;;;22.90;28.60;;;;;;2252296;61;20414;-66
2023/11/09 01:10:08;0.00;0.00;0.62;0.00;0.00;0.62;1.90;1.03;;;22.90;28.60;;;;;;2252185;61;20891;-59
2023/11/09 01:12:52;0.00;0.00;0.62;0.00;0.00;0.62;1.80;1.17;;;22.90;28.60;;;;;;2251815;61;20370;-60
2023/11/09 01:15:37;0.00;0.00;0.62;0.00;0.00;0.62;2.40;1.13;;;22.90;28.60;;;;;;2252076;61;20499;-61
2023/11/09 01:18:24;0.00;0.00;0.62;0.00;0.00;0.62;1.80;1.03;;;22.90;28.60;;;;;;2254316;61;20369;-60
2023/11/09 01:21:10;0.00;0.00;0.62;0.00;0.00;0.62;1.70;1.00;;;22.90;28.90;;;;;;2251698;61;20417;-61
2023/11/09 01:23:54;0.00;0.00;0.62;0.00;0.00;0.62;2.30;1.10;;;22.90;28.60;;;;;;2252337;61;20413;-61
2023/11/09 01:26:39;0.00;0.00;0.62;0.00;0.00;0.62;2.47;1.20;;;22.90;28.60;;;;;;2252417;61;20387;-61
2023/11/09 01:29:24;0.00;0.00;0.62;0.00;0.00;0.62;1.50;0.90;;;22.90;28.60;;;;;;2251377;61;20362;-62
2023/11/09 01:32:09;0.00;0.00;0.62;0.00;0.00;0.62;1.63;0.90;;;22.90;28.60;;;;;;2252370;61;20843;-61
2023/11/09 01:34:54;0.00;0.00;0.62;0.00;0.00;0.62;1.90;1.20;;;22.90;28.70;;;;;;2252207;61;20398;-59
2023/11/09 01:37:39;0.00;0.00;0.62;0.00;0.00;0.62;1.77;1.10;;;22.90;28.70;;;;;;2252503;61;20339;-62
2023/11/09 01:40:25;0.00;0.00;0.62;0.00;0.00;0.62;1.90;1.27;;;22.90;28.60;;;;;;2252027;61;20414;-62
2023/11/09 01:43:11;0.00;0.00;0.62;0.00;0.00;0.62;2.03;1.40;;;22.90;28.60;;;;;;2251895;61;20812;-61
2023/11/09 01:45:56;0.00;0.00;0.62;0.00;0.00;0.62;1.50;1.00;;;22.90;28.60;;;;;;2252042;61;20951;-62
2023/11/09 01:48:41;0.00;0.00;0.62;0.00;0.00;0.62;1.83;1.07;;;22.90;28.70;;;;;;2251336;61;20386;-60
2023/11/09 01:51:27;0.00;0.00;0.62;0.00;0.00;0.62;1.77;1.20;;;22.90;28.60;;;;;;2251814;61;20358;-62
2023/11/09 01:54:13;0.00;0.00;0.62;0.00;0.00;0.62;1.50;1.00;;;22.90;28.60;;;;;;2254527;61;20394;-57
2023/11/09 01:56:58;0.00;0.00;0.62;0.00;0.00;0.62;1.90;1.20;;;22.90;28.70;;;;;;2251697;61;20441;-56
2023/11/09 01:59:46;0.00;0.00;0.62;0.00;0.00;0.62;1.70;1.00;;;22.90;28.60;;;;;;2251614;61;20930;-62
2023/11/09 02:02:30;0.00;0.00;0.62;0.00;0.00;0.62;1.57;0.80;;;22.90;28.70;;;;;;2251956;61;20367;-61
2023/11/09 02:05:15;0.00;0.00;0.62;0.00;0.00;0.62;1.30;0.80;;;22.90;28.60;;;;;;2251777;61;20437;-63
2023/11/09 02:08:01;0.00;0.00;0.62;0.00;0.00;0.62;2.00;1.07;;;22.90;28.60;;;;;;2252171;61;20398;-62
2023/11/09 02:10:47;0.00;0.00;0.62;0.00;0.00;0.62;2.10;1.27;;;22.90;28.60;;;;;;2254561;61;20934;-60
2023/11/09 02:13:35;0.00;0.00;0.62;0.00;0.00;0.62;1.40;0.90;;;22.90;28.60;;;;;;2251906;61;20425;-62
2023/11/09 02:16:20;0.00;0.00;0.62;0.00;0.00;0.62;2.00;1.07;;;22.90;28.60;;;;;;2251812;61;20426;-61
2023/11/09 02:19:06;0.00;0.00;0.62;0.00;0.00;0.62;1.50;0.80;;;22.90;28.70;;;;;;2245701;61;20390;-61
2023/11/09 02:21:52;0.00;0.00;0.62;0.00;0.00;0.62;2.27;1.00;;;22.90;28.60;;;;;;2251868;61;20398;-62
2023/11/09 02:24:39;0.00;0.00;0.62;0.00;0.00;0.62;1.93;1.13;;;22.80;28.50;;;;;;2252275;61;20392;-62
2023/11/09 02:27:23;0.00;0.00;0.62;0.00;0.00;0.62;1.30;0.70;;;22.90;28.60;;;;;;2252193;61;20424;-64
2023/11/09 02:30:10;0.00;0.00;0.62;0.00;0.00;0.62;1.70;1.00;;;22.80;28.50;;;;;;2251898;61;20362;-66
2023/11/09 02:32:55;0.00;0.00;0.62;0.00;0.00;0.62;1.97;0.80;;;22.90;28.70;;;;;;2251787;61;20775;-60
2023/11/09 02:35:40;0.00;0.00;0.62;0.00;0.00;0.62;1.80;0.90;;;22.90;29.20;;;;;;2251394;61;20402;-62
2023/11/09 02:38:25;0.00;0.00;0.62;0.00;0.00;0.62;1.40;0.80;;;22.80;28.50;;;;;;2251950;61;20406;-60
2023/11/09 02:41:11;0.00;0.00;0.62;0.00;0.00;0.62;1.60;0.90;;;22.90;28.60;;;;;;2252439;61;20505;-60
2023/11/09 02:43:56;0.00;0.00;0.62;0.00;0.00;0.62;1.57;0.83;;;22.80;28.50;;;;;;2252458;61;20367;-63
2023/11/09 02:46:41;0.00;0.00;0.62;0.00;0.00;0.62;2.10;1.00;;;22.80;28.50;;;;;;2254920;58;20418;-62
2023/11/09 02:49:26;0.00;0.00;0.62;0.00;0.00;0.62;2.00;1.40;;;22.90;28.60;;;;;;2251618;61;20371;-62
2023/11/09 02:52:10;0.00;0.00;0.62;0.00;0.00;0.62;1.63;0.90;;;22.80;28.50;;;;;;2252307;61;20362;-64
2023/11/09 02:54:59;0.00;0.00;0.62;0.00;0.00;0.62;1.53;0.90;;;22.80;28.50;;;;;;2252245;61;21035;-62
2023/11/09 02:57:45;0.00;0.00;0.62;0.00;0.00;0.62;1.43;0.73;;;22.80;28.60;;;;;;2251552;61;20363;-61
2023/11/09 03:00:29;0.00;0.00;0.62;0.00;0.00;0.62;1.70;0.90;;;22.80;28.60;;;;;;2251760;61;20510;-62
2023/11/09 03:03:14;0.00;0.00;0.62;0.00;0.00;0.62;1.50;0.80;;;22.80;28.50;;;;;;2251629;61;20420;-62
2023/11/09 03:05:59;0.00;0.00;0.62;0.00;0.00;0.62;2.17;1.20;;;22.80;28.60;;;;;;2252109;61;20454;-61
2023/11/09 03:08:43;0.00;0.00;0.62;0.00;0.00;0.62;1.77;0.80;;;22.80;28.50;;;;;;2251799;61;20845;-59
2023/11/09 03:11:28;0.00;0.00;0.62;0.00;0.00;0.62;1.40;0.70;;;22.80;28.60;;;;;;2252072;61;20362;-61
2023/11/09 03:14:14;0.00;0.00;0.62;0.00;0.00;0.62;1.40;0.70;;;22.80;28.50;;;;;;2252066;61;20386;-63
2023/11/09 03:16:59;0.00;0.00;0.62;0.00;0.00;0.62;1.50;0.80;;;22.80;28.50;;;;;;2251709;61;20374;-60
2023/11/09 03:19:43;0.00;0.00;0.62;0.00;0.00;0.62;2.10;1.30;;;22.80;28.50;;;;;;2251436;61;20371;-62
2023/11/09 03:22:30;0.00;0.00;0.62;0.00;0.00;0.62;1.33;0.77;;;22.80;28.50;;;;;;2251832;61;20390;-62
2023/11/09 03:25:15;0.00;0.00;0.62;0.00;0.00;0.62;1.60;0.70;;;22.80;28.50;;;;;;2252150;61;20406;-61
2023/11/09 03:28:00;0.00;0.00;0.62;0.00;0.00;0.62;2.33;1.00;;;22.80;28.50;;;;;;2251675;61;20373;-59
2023/11/09 03:30:46;0.00;0.00;0.62;0.00;0.00;0.62;1.53;0.93;;;22.80;28.50;;;;;;2251733;61;20399;-60
2023/11/09 03:33:30;0.00;0.00;0.62;0.00;0.00;0.62;1.50;0.80;;;22.80;28.50;;;;;;2251969;61;20370;-57
2023/11/09 03:36:18;0.00;0.00;0.62;0.00;0.00;0.62;1.50;0.83;;;22.80;28.50;;;;;;2252175;61;20422;-60
2023/11/09 03:39:03;0.00;0.00;0.62;0.00;0.00;0.62;1.80;1.00;;;22.80;28.60;;;;;;2251434;61;20457;-59
2023/11/09 03:41:48;0.00;0.00;0.62;0.00;0.00;0.62;1.80;0.80;;;22.80;28.50;;;;;;2251898;61;20361;-60
2023/11/09 03:44:35;0.00;0.00;0.62;0.00;0.00;0.62;1.63;0.93;;;22.80;28.50;;;;;;2251804;61;20383;-62
2023/11/09 03:47:24;0.00;0.00;0.62;0.00;0.00;0.62;1.40;0.90;;;22.80;28.50;;;;;;2252253;61;20903;-62
2023/11/09 03:50:11;0.00;0.00;0.62;0.00;0.00;0.62;1.50;0.90;;;22.80;28.60;;;;;;2251533;61;20795;-62
2023/11/09 03:52:56;0.00;0.00;0.62;0.00;0.00;0.62;1.77;1.03;;;22.80;28.50;;;;;;2252642;61;20904;-62
2023/11/09 03:55:41;0.00;0.00;0.62;0.00;0.00;0.62;1.60;1.00;;;22.80;28.60;;;;;;2252078;61;20834;-61
2023/11/09 03:58:25;0.00;0.00;0.62;0.00;0.00;0.62;1.50;0.90;;;22.80;28.60;;;;;;2251896;61;20355;-60
2023/11/09 04:01:10;0.00;0.00;0.62;0.00;0.00;0.62;1.30;0.80;;;22.80;28.50;;;;;;2252502;61;20836;-61
2023/11/09 04:03:56;0.00;0.00;0.62;0.00;0.00;0.62;1.40;0.70;;;22.80;28.50;;;;;;2252303;61;20426;-61
2023/11/09 04:06:41;0.00;0.00;0.62;0.00;0.00;0.62;1.60;0.87;;;22.80;28.50;;;;;;2252397;61;20371;-61
2023/11/09 04:09:26;0.00;0.00;0.62;0.00;0.00;0.62;1.63;0.70;;;22.80;28.50;;;;;;2252016;61;20880;-61
2023/11/09 04:12:11;0.00;0.00;0.62;0.00;0.00;0.62;1.40;0.90;;;22.80;28.50;;;;;;2252241;61;20425;-63
2023/11/09 04:14:58;0.00;0.00;0.62;0.00;0.00;0.62;1.50;0.80;;;22.80;28.50;;;;;;2252575;61;20394;-63
2023/11/09 04:17:43;0.00;0.00;0.62;0.00;0.00;0.62;1.50;0.87;;;22.80;28.50;;;;;;2252831;61;20367;-61
2023/11/09 04:20:29;0.00;0.00;0.62;0.00;0.00;0.62;1.40;0.77;;;22.80;28.60;;;;;;2252603;61;20363;-60
2023/11/09 04:23:14;0.00;0.00;0.62;0.00;0.00;0.62;1.80;0.90;;;22.80;28.50;;;;;;2252494;61;20413;-61
2023/11/09 04:25:58;0.00;0.00;0.62;0.00;0.00;0.62;1.40;0.80;;;22.80;28.50;;;;;;2252447;61;20433;-61
2023/11/09 04:28:43;0.00;0.00;0.62;0.00;0.00;0.62;1.70;1.00;;;22.80;28.50;;;;;;2251452;61;20367;-61
2023/11/09 04:31:30;0.00;0.00;0.62;0.00;0.00;0.62;1.40;0.80;;;22.80;28.50;;;;;;2252591;61;20434;-64
2023/11/09 04:34:15;0.00;0.00;0.62;0.00;0.00;0.62;1.50;0.80;;;22.80;28.50;;;;;;2252457;61;20495;-61
2023/11/09 04:37:01;0.00;0.00;0.62;0.00;0.00;0.62;1.40;0.80;;;22.80;28.50;;;;;;2252469;61;20908;-61
2023/11/09 04:39:51;0.00;0.00;0.62;0.00;0.00;0.62;1.40;0.80;;;22.80;28.60;;;;;;2252337;61;20414;-62
2023/11/09 04:42:39;0.00;0.00;0.62;0.00;0.00;0.62;1.50;0.80;;;22.80;28.50;;;;;;2252079;61;20390;-59
2023/11/09 04:45:25;0.00;0.00;0.62;0.00;0.00;0.62;1.50;0.80;;;22.80;28.50;;;;;;2252776;61;20449;-61
2023/11/09 04:48:19;0.00;0.00;0.62;0.00;0.00;0.62;1.50;0.70;;;22.80;28.50;;;;;;2251879;61;20992;-62
2023/11/09 04:51:06;0.00;0.00;0.62;0.00;0.00;0.62;1.57;0.90;;;22.70;28.50;;;;;;2252551;61;20437;-60
2023/11/09 04:53:52;0.00;0.00;0.62;0.00;0.00;0.62;1.40;0.80;;;22.80;28.50;;;;;;2252617;61;20793;-61
2023/11/09 04:56:52;0.00;0.00;0.62;0.00;0.00;0.62;1.30;0.70;;;22.80;28.50;;;;;;2251894;61;20422;-61
2023/11/09 05:08:54;0.00;0.00;0.62;0.00;0.00;0.62;1.57;0.80;;;22.80;28.50;;;;;;2252064;61;20386;-60
2023/11/09 05:11:38;0.00;0.00;0.62;0.00;0.00;0.62;1.43;0.90;;;22.80;28.60;;;;;;2252117;61;20421;-62
2023/11/09 05:14:23;0.00;0.00;0.62;0.00;0.00;0.62;1.53;0.80;;;22.80;28.60;;;;;;2251891;61;20386;-61
2023/11/09 05:17:13;0.00;0.00;0.62;0.00;0.00;0.62;1.60;0.90;;;22.70;28.50;;;;;;2252140;61;20362;-60
2023/11/09 05:19:58;0.00;0.00;0.62;0.00;0.00;0.62;1.63;0.90;;;22.80;28.50;;;;;;2252328;61;20387;-60
2023/11/09 05:22:43;0.00;0.00;0.62;0.00;0.00;0.62;1.57;0.90;;;22.70;28.50;;;;;;2252564;61;20398;-62
2023/11/09 05:25:29;0.00;0.00;0.62;0.00;0.00;0.62;1.70;0.90;;;22.80;28.50;;;;;;2252298;61;20387;-61
2023/11/09 05:28:13;0.00;0.00;0.62;0.00;0.00;0.62;1.43;0.80;;;22.80;28.50;;;;;;2252217;61;20939;-57
2023/11/09 05:30:58;0.00;0.00;0.62;0.00;0.00;0.62;1.60;0.90;;;22.80;28.50;;;;;;2252466;61;20378;-58
2023/11/09 05:33:44;0.00;0.00;0.62;0.00;0.00;0.62;1.67;0.93;;;22.70;28.50;;;;;;2252290;61;20900;-61
2023/11/09 05:36:28;0.00;0.00;0.62;0.00;0.00;0.62;1.40;0.90;;;22.80;28.60;;;;;;2252592;61;20793;-60
2023/11/09 05:39:14;0.00;0.00;0.62;0.00;0.00;0.62;1.73;1.00;;;22.80;28.50;;;;;;2251820;61;20370;-62
2023/11/09 05:42:00;0.00;0.00;0.62;0.00;0.00;0.62;1.80;1.13;;;22.70;28.50;;;;;;2252749;61;20363;-62
2023/11/09 05:44:44;0.00;0.00;0.62;0.00;0.00;0.62;1.40;0.80;;;22.70;28.50;;;;;;2252392;61;20802;-62
2023/11/09 05:47:29;0.00;0.00;0.62;0.00;0.00;0.62;2.60;0.80;;;22.80;28.50;;;;;;2252269;61;20445;-62
2023/11/09 05:50:13;0.00;0.00;0.62;0.00;0.00;0.62;1.60;1.10;;;22.70;28.50;;;;;;2252333;61;20442;-60
2023/11/09 05:52:58;0.00;0.00;0.62;0.00;0.00;0.62;1.40;0.63;;;22.70;28.50;;;;;;2252401;61;20887;-61
2023/11/09 05:55:43;0.00;0.00;0.62;0.00;0.00;0.62;1.30;0.70;;;22.70;28.50;;;;;;2251866;61;20446;-61
2023/11/09 05:58:29;0.00;0.00;0.62;0.00;0.00;0.62;1.50;1.00;;;22.70;28.50;;;;;;2251997;61;20864;-62
2023/11/09 06:01:14;0.00;0.00;0.62;0.00;0.00;0.62;1.50;0.80;;;22.70;28.50;;;;;;2252248;61;20817;-61
2023/11/09 06:04:01;0.00;0.00;0.62;0.00;0.00;0.62;1.43;0.90;;;22.70;28.50;;;;;;2252255;61;20410;-61
2023/11/09 06:06:45;0.00;0.00;0.62;0.00;0.00;0.62;1.50;0.90;;;22.70;28.50;;;;;;2252383;61;20358;-62
2023/11/09 06:09:31;0.00;0.00;0.62;0.00;0.00;0.62;1.60;1.00;;;22.70;28.50;;;;;;2251444;61;20414;-61
2023/11/09 06:12:15;0.00;0.00;0.62;0.00;0.00;0.62;1.90;0.93;;;22.70;28.50;;;;;;2252030;61;20386;-59
2023/11/09 06:15:02;0.00;0.00;0.62;0.00;0.00;0.62;1.83;0.80;;;22.70;28.50;;;;;;2252268;61;20399;-61
2023/11/09 06:17:47;0.00;0.00;0.62;0.00;0.00;0.62;1.60;0.90;;;22.70;28.50;;;;;;2251919;61;20370;-61
2023/11/09 06:20:32;0.00;0.00;0.62;0.00;0.00;0.62;1.50;0.90;;;22.70;28.50;;;;;;2252308;61;20386;-62
2023/11/09 06:23:17;0.00;0.00;0.62;0.00;0.00;0.62;1.40;0.80;;;22.70;28.50;;;;;;2252383;61;20370;-62
2023/11/09 06:26:01;0.00;0.00;0.62;0.00;0.00;0.62;1.57;0.83;;;22.80;28.50;;;;;;2252289;61;20386;-63
2023/11/09 06:28:46;0.00;0.00;0.62;0.00;0.00;0.62;1.60;0.90;;;22.70;28.50;;;;;;2251964;61;20366;-61
2023/11/09 06:31:32;0.00;0.00;0.62;0.00;0.00;0.62;1.40;0.80;;;22.70;28.50;;;;;;2252006;61;20410;-61
2023/11/09 06:34:16;0.00;0.00;0.62;0.00;0.00;0.62;1.77;1.10;;;22.70;28.50;;;;;;2252204;61;20390;-62
2023/11/09 06:37:01;0.00;0.00;0.62;0.00;0.00;0.62;1.70;1.10;;;22.70;28.50;;;;;;2251837;61;20520;-62
2023/11/09 06:39:48;0.00;0.00;0.62;0.00;0.00;0.62;1.77;1.00;;;22.70;28.50;;;;;;2251695;61;20370;-61
2023/11/09 06:42:33;0.00;0.00;0.62;0.00;0.00;0.62;1.53;0.87;;;22.70;28.50;;;;;;2252369;61;20406;-60
2023/11/09 06:45:18;0.00;0.00;0.62;0.00;0.00;0.62;1.50;1.00;;;22.70;28.50;;;;;;2251682;61;20406;-61
2023/11/09 06:48:05;0.00;0.00;0.62;0.00;0.00;0.62;1.80;1.20;;;22.70;28.50;;;;;;2251819;61;20900;-62
2023/11/09 06:50:50;0.00;0.00;0.62;0.00;0.00;0.62;1.80;1.10;;;22.70;28.50;;;;;;2252331;61;20421;-61
2023/11/09 06:53:35;0.00;0.00;0.62;0.00;0.00;0.62;2.33;1.10;;;22.70;28.50;;;;;;2251526;61;20826;-63
2023/11/09 06:56:19;0.00;0.00;0.62;0.00;0.00;0.62;1.50;1.00;;;22.70;28.50;;;;;;2252324;61;20398;-62
2023/11/09 06:59:04;0.00;0.00;0.62;0.00;0.00;0.62;1.60;1.07;;;22.70;28.50;;;;;;2251659;61;20628;-63
2023/11/09 07:01:48;0.00;0.00;0.62;0.00;0.00;0.62;1.87;1.30;;;22.70;28.50;;;;;;2251823;61;20382;-61
2023/11/09 07:04:34;0.00;0.00;0.62;0.00;0.00;0.62;2.70;1.63;;;22.70;28.50;;;;;;2252305;61;20390;-60
2023/11/09 07:07:18;0.00;0.00;0.62;0.00;0.00;0.62;2.23;1.50;;;22.70;28.50;;;;;;2252357;61;20426;-62
2023/11/09 07:10:07;0.00;0.00;0.62;0.00;0.00;0.62;2.47;1.70;;;22.70;28.50;;;;;;2251723;61;20451;-62
2023/11/09 07:12:51;0.00;0.00;0.62;0.00;0.00;0.62;3.13;2.10;;;22.70;28.50;;;;;;2254502;61;20371;-62
2023/11/09 07:15:39;0.00;0.00;0.62;0.00;0.00;0.62;3.03;2.30;;;22.70;28.50;;;;;;2252092;61;20387;-62
2023/11/09 07:18:24;0.00;0.00;0.62;0.00;0.00;0.62;3.40;2.60;;;22.70;28.50;;;;;;2251672;61;20362;-61
2023/11/09 07:21:09;0.00;0.00;0.62;0.00;0.00;0.62;3.03;2.27;;;22.70;28.50;;;;;;2252757;61;20409;-62
2023/11/09 07:23:59;0.00;0.00;0.62;0.00;0.00;0.62;3.43;2.20;;;22.70;28.50;;;;;;2252626;61;20418;-60
2023/11/09 07:26:44;0.00;0.00;0.62;0.00;0.00;0.62;4.03;2.60;;;22.70;28.50;;;;;;2253784;61;20394;-64
2023/11/09 07:29:29;0.00;0.00;0.62;0.00;0.00;0.62;4.10;2.50;;;22.70;28.50;;;;;;2256567;61;20561;-62
2023/11/09 07:32:13;0.00;0.00;0.62;0.00;0.00;0.62;3.80;2.80;;;22.70;28.50;;;;;;2256724;61;20386;-62
2023/11/09 07:34:58;0.00;0.00;0.62;0.00;0.00;0.62;4.37;2.87;;;22.70;28.50;;;;;;2256412;61;20800;-62
2023/11/09 07:37:44;0.00;0.00;0.62;0.00;0.00;0.62;4.17;3.20;;;22.70;28.50;;;;;;2256920;61;20370;-62
2023/11/09 07:40:29;0.00;0.00;0.62;0.00;0.00;0.62;3.83;2.90;;;22.70;28.50;;;;;;2256848;61;20908;-61
2023/11/09 07:43:13;0.00;0.00;0.62;0.00;0.00;0.62;4.30;3.10;;;22.70;28.50;;;;;;2256707;61;20801;-63
2023/11/09 07:45:58;0.00;0.00;0.62;0.00;0.00;0.62;5.63;3.47;;;22.70;28.50;;;;;;2256428;61;20429;-63
2023/11/09 07:48:42;0.00;0.00;0.62;0.00;0.00;0.62;3.40;2.63;;;22.70;28.50;;;;;;2255818;61;20371;-67
2023/11/09 07:51:27;0.00;0.00;0.62;0.00;0.00;0.62;4.77;3.33;;;22.70;28.50;;;;;;2256547;61;20476;-63
2023/11/09 07:54:14;0.00;0.00;0.62;0.00;0.00;0.62;4.53;3.20;;;22.70;28.50;;;;;;2256515;61;20467;-63
2023/11/09 07:57:01;0.00;0.00;0.62;0.00;0.00;0.62;4.07;3.23;;;22.70;28.50;;;;;;2253754;61;20475;-63
2023/11/09 07:59:45;0.00;0.00;0.62;0.00;0.00;0.62;4.33;3.63;;;22.70;28.50;;;;;;2256103;61;20828;-63
2023/11/09 08:02:30;0.00;0.00;0.62;0.00;0.00;0.62;5.07;3.53;;;22.70;28.50;;;;;;2256261;61;20371;-62
2023/11/09 08:05:15;0.00;0.00;0.62;0.00;0.00;0.62;4.93;3.80;;;22.70;28.50;;;;;;2259007;61;20398;-63
2023/11/09 08:08:01;0.00;0.00;0.62;0.00;0.00;0.62;4.47;3.83;;;22.70;28.50;;;;;;2255725;61;20362;-63
2023/11/09 08:10:47;0.00;0.00;0.62;0.00;0.00;0.62;4.83;3.30;;;22.70;28.50;;;;;;2256488;61;20363;-62
2023/11/09 08:13:33;0.00;0.00;0.62;0.00;0.00;0.62;3.87;3.47;;;22.70;28.50;;;;;;2256326;61;20366;-63
2023/11/09 08:16:18;0.00;0.00;0.62;0.00;0.00;0.62;4.27;3.27;;;22.70;28.50;;;;;;2256077;61;20437;-64
2023/11/09 08:19:03;0.00;0.00;0.62;0.00;0.00;0.62;4.07;3.53;;;22.70;28.50;;;;;;2255576;61;20440;-64
2023/11/09 08:21:48;0.00;0.00;0.62;0.00;0.00;0.62;4.63;3.87;;;22.70;28.50;;;;;;2255868;61;20770;-62
2023/11/09 08:24:33;0.00;0.00;0.62;0.00;0.00;0.62;4.40;3.60;;;22.70;28.50;;;;;;2256059;61;20382;-63
2023/11/09 08:27:19;0.00;0.00;0.62;0.00;0.00;0.62;4.43;3.17;;;22.70;28.50;;;;;;2256405;61;20363;-63
2023/11/09 08:30:09;0.00;0.00;0.62;0.00;0.00;0.62;4.77;3.60;;;22.70;28.50;;;;;;2255273;61;20366;-63
2023/11/09 08:32:55;0.00;0.00;0.62;0.00;0.00;0.62;3.80;3.20;;;22.70;28.50;;;;;;2255993;61;20362;-62
2023/11/09 08:35:41;0.00;0.00;0.62;0.00;0.00;0.62;4.50;3.27;;;22.70;28.50;;;;;;2256275;61;20393;-63
2023/11/09 08:38:28;0.00;0.00;0.62;0.00;0.00;0.62;6.27;3.60;;;22.70;28.50;;;;;;2255753;61;20777;-63
2023/11/09 08:41:15;0.00;0.00;0.62;0.00;0.00;0.62;4.93;3.27;;;22.70;28.50;;;;;;2256332;61;20425;-63
2023/11/09 08:44:01;0.00;0.00;0.62;0.00;0.00;0.62;4.33;3.50;;;22.70;28.50;;;;;;2255662;61;20374;-63
2023/11/09 08:46:46;0.00;0.00;0.62;0.00;0.00;0.62;5.30;4.03;;;22.70;28.50;;;;;;2486634;53;20413;-63
2023/11/09 08:49:30;0.00;0.00;0.62;0.00;0.00;0.62;3.43;2.73;;;22.70;28.50;;;;;;2252520;61;20453;-62
2023/11/09 08:52:15;0.00;0.00;0.62;0.00;0.00;0.62;4.83;3.50;;;22.70;28.50;;;;;;2252142;61;20360;-63
2023/11/09 08:54:59;0.00;0.00;0.62;0.00;0.00;0.62;3.63;3.20;;;22.70;28.50;;;;;;2252138;61;20419;-63
2023/11/09 08:57:44;0.00;0.00;0.62;0.00;0.00;0.62;4.33;3.87;;;22.70;28.50;;;;;;2251707;61;20964;-63
2023/11/09 09:00:32;0.00;0.00;0.62;0.00;0.00;0.62;4.30;3.10;;;22.70;28.50;;;;;;2254305;61;20379;-63
2023/11/09 09:03:16;0.00;0.00;0.62;0.00;0.00;0.62;4.30;3.53;;;22.70;28.50;;;;;;2254825;61;20430;-63
2023/11/09 09:06:01;0.00;0.00;0.62;0.00;0.00;0.62;4.87;3.10;;;22.70;28.50;;;;;;2251592;61;20391;-63
2023/11/09 09:08:47;0.00;0.00;0.62;0.00;0.00;0.62;4.10;3.37;;;22.70;28.50;;;;;;2254029;61;20359;-63
2023/11/09 09:11:31;0.00;0.00;0.62;0.00;0.00;0.62;3.97;3.17;;;22.70;28.50;;;;;;2254839;61;20387;-63
2023/11/09 09:14:18;0.00;0.00;0.62;0.00;0.00;0.62;4.60;3.23;;;22.70;28.50;;;;;;2252420;61;20414;-62
2023/11/09 09:17:05;0.00;0.00;0.62;0.00;0.00;0.62;3.73;3.20;;;22.70;28.50;;;;;;2252369;61;20430;-62
2023/11/09 09:19:51;0.00;0.00;0.62;0.00;0.00;0.62;3.87;2.83;;;22.70;28.50;;;;;;2252444;61;20399;-62
2023/11/09 09:22:35;0.00;0.00;0.62;0.00;0.00;0.62;6.23;2.90;;;22.70;28.50;;;;;;2252355;61;20375;-62
2023/11/09 09:25:22;0.00;0.00;0.62;0.00;0.00;0.62;3.43;2.87;;;22.70;28.60;;;;;;2254585;61;20456;-62
2023/11/09 09:28:09;0.00;0.00;0.62;0.00;0.00;0.62;3.57;2.70;;;22.70;28.50;;;;;;2254691;61;20367;-64
2023/11/09 09:30:53;0.00;0.00;0.62;0.00;0.00;0.62;3.17;2.60;;;22.70;28.50;;;;;;2254563;61;20663;-62
2023/11/09 09:33:41;0.00;0.00;0.62;0.00;0.00;0.62;4.57;3.13;;;22.70;29.00;;;;;;2252141;61;20418;-62
2023/11/09 09:36:26;0.00;0.00;0.62;0.00;0.00;0.62;3.80;2.70;;;22.70;28.50;;;;;;2254158;61;20837;-61
2023/11/09 09:39:14;0.00;0.00;0.62;0.00;0.00;0.62;3.67;2.50;;;22.70;28.60;;;;;;2251707;61;20371;-63
2023/11/09 09:41:59;0.00;0.00;0.62;0.00;0.00;0.62;3.60;3.10;;;22.70;28.50;;;;;;2251738;61;20368;-63
2023/11/09 09:44:49;0.00;0.00;0.62;0.00;0.00;0.62;3.40;2.70;;;22.70;28.50;;;;;;2251779;61;21092;-60
2023/11/09 09:47:34;0.00;0.00;0.62;0.00;0.00;0.62;2.77;2.37;;;22.70;28.60;;;;;;2251579;61;20380;-62
2023/11/09 09:50:24;0.00;0.00;0.62;0.00;0.00;0.62;3.97;3.40;;;22.70;28.60;;;;;;2251960;61;20360;-63
2023/11/09 09:53:09;0.00;0.00;0.62;0.00;0.00;0.62;2.73;2.33;;;22.70;28.50;;;;;;2254036;61;20367;-62
2023/11/09 09:55:54;0.00;0.00;0.62;0.00;0.00;0.62;3.07;2.50;;;22.70;28.60;;;;;;2252523;61;20427;-61
2023/11/09 09:58:39;0.00;0.00;0.62;0.00;0.00;0.62;3.50;2.50;;;22.70;28.50;;;;;;2251683;61;20371;-59
2023/11/09 10:01:25;0.00;0.00;0.62;0.00;0.00;0.62;3.67;2.70;;;22.70;28.50;;;;;;2254583;61;20368;-60
2023/11/09 10:04:11;0.00;0.00;0.62;0.00;0.00;0.62;2.63;2.13;;;22.70;28.50;;;;;;2254394;61;20943;-61
2023/11/09 10:06:57;0.00;0.00;0.62;0.00;0.00;0.62;3.27;2.47;;;22.70;28.50;;;;;;2254722;61;20415;-63
2023/11/09 10:09:42;0.00;0.00;0.62;0.00;0.00;0.62;5.30;2.80;;;22.70;28.60;;;;;;2252233;61;20371;-62
2023/11/09 10:12:28;0.00;0.00;0.62;0.00;0.00;0.62;3.50;2.63;;;22.70;28.50;;;;;;2254018;61;20403;-62
2023/11/09 10:15:15;0.00;0.00;0.62;0.00;0.00;0.62;2.90;2.60;;;22.70;28.50;;;;;;2253081;61;20398;-62
2023/11/09 10:18:00;0.00;0.00;0.62;0.00;0.00;0.62;2.63;2.10;;;22.70;28.50;;;;;;2253737;61;20373;-62
2023/11/09 10:20:55;0.00;0.00;0.62;0.00;0.00;0.62;3.00;2.20;;;22.70;28.60;;;;;;2251703;61;20380;-62
2023/11/09 10:23:40;0.00;0.00;0.62;0.00;0.00;0.62;3.57;2.83;;;22.70;28.50;;;;;;2251793;61;20371;-62
2023/11/09 10:26:40;0.00;0.00;0.62;0.00;0.00;0.62;3.27;2.30;;;22.70;28.60;;;;;;2251765;61;20367;-63
2023/11/09 10:29:25;0.00;0.00;0.62;0.00;0.00;0.62;3.40;2.53;;;22.70;28.60;;;;;;2253261;61;20372;-63
2023/11/09 10:32:22;0.00;0.00;0.62;0.00;0.00;0.62;4.47;2.60;;;22.70;28.50;;;;;;2251696;61;20363;-62
2023/11/09 10:35:10;0.00;0.00;0.62;0.00;0.00;0.62;3.03;2.17;;;22.70;28.50;;;;;;2251407;61;20410;-63
2023/11/09 10:37:57;0.00;0.00;0.62;0.00;0.00;0.62;3.67;2.70;;;22.70;29.10;;;;;;2251287;61;20768;-63
2023/11/09 10:40:44;0.00;0.00;0.62;0.00;0.00;0.62;3.87;2.93;;;22.70;28.60;;;;;;2254302;61;20371;-64
2023/11/09 10:43:33;0.00;0.00;0.62;0.00;0.00;0.62;2.93;2.00;;;22.70;28.60;;;;;;2250933;61;20816;-63
2023/11/09 10:46:19;0.00;0.00;0.62;0.00;0.00;0.62;3.63;2.50;;;22.70;28.60;;;;;;2252087;61;20368;-63
2023/11/09 10:49:06;0.00;0.00;0.62;0.00;0.00;0.62;3.80;2.10;;;22.70;28.60;;;;;;2253642;61;20897;-63
2023/11/09 10:51:55;0.00;0.00;0.62;0.00;0.00;0.62;3.03;2.50;;;22.70;28.60;;;;;;2251875;61;20422;-62
2023/11/09 10:54:42;0.00;0.00;0.62;0.00;0.00;0.62;3.13;2.20;;;22.70;28.60;;;;;;2253926;61;20388;-60
2023/11/09 10:57:30;0.00;0.00;0.62;0.00;0.00;0.62;3.70;2.90;;;22.70;29.10;;;;;;2252320;61;20372;-63
2023/11/09 11:00:26;0.00;0.00;0.62;0.00;0.00;0.62;3.27;2.10;;;22.70;28.60;;;;;;2254474;61;20387;-62
2023/11/09 11:03:25;0.00;0.00;0.62;0.00;0.00;0.62;3.10;2.10;;;22.70;28.50;;;;;;2254977;61;20395;-65